PWSweather.com
Personal Weather Stations
Station Observations
KCOGRAND2
Redlands, Southcamp Road & Dakota Circle, Grand Junction, CO 81507

Redlands, Southcamp Road & Dakota CircleGrand Junction, CO 81507

Lat: 39.055, Lon: -108.637

Elevation: 4870

Station Type: RadioShack WX200

Latest ConditionsUpdated 12:03:40 AM MDT Tuesday, Jun 28, 2016
Currently Today's Max Today's Min Today's Average
Temperature 80.1°F26.7°C 98.6°F37.0°C 63.1°F17.3°C 82.8°F28.2°C
Dew Point -5537.2°C 0.0°F-17.8°C 0.0°F-17.8°C 0.0°F-17.8°C
Winds 2.0 mph E3.2 kmh E 9.0 mph N14.5 kmh N - 4.1 mph 6.6 kmh
Wind Gusts 4.9 mph7.9 kmh 16.3 mph26.2 kmh - -
Humidity - 0% 0% 0%
Pressure 25.19 in853.0 mb 25.28 in856.1 mb 25.13 in851.0 mb -
Hour Temp Dew Point Humidity Winds Wind Gusts Pressure Precip Precip Rate Daily Precip Total
11:58 PM 79.9°F26.6°C -5537.2°C - 2.0 mph ENE3.2 kmh ENE 4.5 mph7.2 kmh 25.19 in853.0 mb 0.00 in0.0 mm 0.00 in0.0 mm 0.00 in0.0 mm
11:53 PM 81.0°F27.2°C -5537.2°C - 2.0 mph NE3.2 kmh NE 4.5 mph7.2 kmh 25.19 in853.0 mb 0.00 in0.0 mm 0.00 in0.0 mm 0.00 in0.0 mm
11:48 PM 80.2°F26.8°C -5537.2°C - 1.0 mph NE1.6 kmh NE 3.6 mph5.8 kmh 25.19 in853.0 mb 0.00 in0.0 mm 0.00 in0.0 mm 0.00 in0.0 mm
11:43 PM 80.6°F27.0°C -5537.2°C - 2.0 mph NE3.2 kmh NE 4.5 mph7.2 kmh 25.19 in853.0 mb 0.00 in0.0 mm 0.00 in0.0 mm 0.00 in0.0 mm
11:38 PM 79.9°F26.6°C -5537.2°C - 3.0 mph ENE4.8 kmh ENE 6.9 mph11.1 kmh 25.19 in853.0 mb 0.00 in0.0 mm 0.00 in0.0 mm 0.00 in0.0 mm
11:33 PM 81.0°F27.2°C -5537.2°C - 2.0 mph E3.2 kmh E 4.9 mph7.9 kmh 25.19 in853.0 mb 0.00 in0.0 mm 0.00 in0.0 mm 0.00 in0.0 mm
11:28 PM 81.1°F27.3°C -5537.2°C - 1.0 mph E1.6 kmh E 3.1 mph5.0 kmh 25.19 in853.0 mb 0.00 in0.0 mm 0.00 in0.0 mm 0.00 in0.0 mm
11:23 PM 81.1°F27.3°C -5537.2°C - 1.0 mph E1.6 kmh E 3.6 mph5.8 kmh 25.19 in853.0 mb 0.00 in0.0 mm 0.00 in0.0 mm 0.00 in0.0 mm
11:18 PM 81.1°F27.3°C -5537.2°C - 1.0 mph E1.6 kmh E 3.1 mph5.0 kmh 25.19 in853.0 mb 0.00 in0.0 mm 0.00 in0.0 mm 0.00 in0.0 mm
11:13 PM 81.1°F27.3°C -5537.2°C - 2.0 mph E3.2 kmh E 4.0 mph6.4 kmh 25.19 in853.0 mb 0.00 in0.0 mm 0.00 in0.0 mm 0.00 in0.0 mm
11:08 PM 81.1°F27.3°C -5537.2°C - 3.0 mph ENE4.8 kmh ENE 6.7 mph10.8 kmh 25.19 in853.0 mb 0.00 in0.0 mm 0.00 in0.0 mm 0.00 in0.0 mm
11:03 PM 82.4°F28.0°C -5537.2°C - 2.0 mph NNE3.2 kmh NNE 6.3 mph10.1 kmh 25.19 in853.0 mb 0.00 in0.0 mm 0.00 in0.0 mm 0.00 in0.0 mm
10:58 PM 81.9°F27.7°C -5537.2°C - Calm Calm 4.9 mph7.9 kmh 25.19 in853.0 mb 0.00 in0.0 mm 0.00 in0.0 mm 0.00 in0.0 mm
10:53 PM 81.9°F27.7°C -5537.2°C - Calm Calm -- 25.19 in853.0 mb 0.00 in0.0 mm 0.00 in0.0 mm 0.00 in0.0 mm
10:48 PM 82.8°F28.2°C -5537.2°C - 2.0 mph N3.2 kmh N 4.5 mph7.2 kmh 25.19 in853.0 mb 0.00 in0.0 mm 0.00 in0.0 mm 0.00 in0.0 mm
10:43 PM 82.9°F28.3°C -5537.2°C - 3.0 mph N4.8 kmh N 4.5 mph7.2 kmh 25.19 in853.0 mb 0.00 in0.0 mm 0.00 in0.0 mm 0.00 in0.0 mm
10:38 PM 82.8°F28.2°C -5537.2°C - 3.0 mph N4.8 kmh N 4.0 mph6.4 kmh 25.19 in853.0 mb 0.00 in0.0 mm 0.00 in0.0 mm 0.00 in0.0 mm
10:33 PM 83.3°F28.5°C -5537.2°C - 4.0 mph N6.4 kmh N 6.3 mph10.1 kmh 25.19 in853.0 mb 0.00 in0.0 mm 0.00 in0.0 mm 0.00 in0.0 mm
10:28 PM 83.8°F28.8°C -5537.2°C - 4.0 mph N6.4 kmh N 5.8 mph9.3 kmh 25.19 in853.0 mb 0.00 in0.0 mm 0.00 in0.0 mm 0.00 in0.0 mm
10:23 PM 82.2°F27.9°C -5537.2°C - 4.0 mph N6.4 kmh N 6.7 mph10.8 kmh 25.19 in853.0 mb 0.00 in0.0 mm 0.00 in0.0 mm 0.00 in0.0 mm
10:18 PM 81.7°F27.6°C -5537.2°C - 3.0 mph N4.8 kmh N 5.8 mph9.3 kmh 25.16 in852.0 mb 0.00 in0.0 mm 0.00 in0.0 mm 0.00 in0.0 mm
10:13 PM 81.3°F27.4°C -5537.2°C - 2.0 mph NNE3.2 kmh NNE 6.9 mph11.1 kmh 25.16 in852.0 mb 0.00 in0.0 mm 0.00 in0.0 mm 0.00 in0.0 mm
10:08 PM 82.8°F28.2°C -5537.2°C - 1.0 mph NNE1.6 kmh NNE 5.8 mph9.3 kmh 25.16 in852.0 mb 0.00 in0.0 mm 0.00 in0.0 mm 0.00 in0.0 mm
10:03 PM 82.9°F28.3°C -5537.2°C - Calm Calm 3.6 mph5.8 kmh 25.16 in852.0 mb 0.00 in0.0 mm 0.00 in0.0 mm 0.00 in0.0 mm
09:58 PM 83.7°F28.7°C -5537.2°C - 1.0 mph NNE1.6 kmh NNE 3.1 mph5.0 kmh 25.16 in852.0 mb 0.00 in0.0 mm 0.00 in0.0 mm 0.00 in0.0 mm
09:53 PM 84.0°F28.9°C -5537.2°C - 2.0 mph NNE3.2 kmh NNE 4.0 mph6.4 kmh 25.16 in852.0 mb 0.00 in0.0 mm 0.00 in0.0 mm 0.00 in0.0 mm
09:48 PM 84.2°F29.0°C -5537.2°C - 2.0 mph NNE3.2 kmh NNE 4.0 mph6.4 kmh 25.16 in852.0 mb 0.00 in0.0 mm 0.00 in0.0 mm 0.00 in0.0 mm
09:43 PM 84.6°F29.2°C -5537.2°C - 2.0 mph NNE3.2 kmh NNE 4.0 mph6.4 kmh 25.16 in852.0 mb 0.00 in0.0 mm 0.00 in0.0 mm 0.00 in0.0 mm
09:38 PM 85.1°F29.5°C -5537.2°C - 3.0 mph NNE4.8 kmh NNE 4.9 mph7.9 kmh 25.16 in852.0 mb 0.00 in0.0 mm 0.00 in0.0 mm 0.00 in0.0 mm
09:33 PM 85.3°F29.6°C -5537.2°C - 2.0 mph NE3.2 kmh NE 6.3 mph10.1 kmh 25.16 in852.0 mb 0.00 in0.0 mm 0.00 in0.0 mm 0.00 in0.0 mm
09:28 PM 85.6°F29.8°C -5537.2°C - Calm Calm -- 25.16 in852.0 mb 0.00 in0.0 mm 0.00 in0.0 mm 0.00 in0.0 mm
09:23 PM 85.8°F29.9°C -5537.2°C - Calm Calm 2.7 mph4.3 kmh 25.16 in852.0 mb 0.00 in0.0 mm 0.00 in0.0 mm 0.00 in0.0 mm
09:18 PM 85.8°F29.9°C -5537.2°C - 2.0 mph ENE3.2 kmh ENE 3.1 mph5.0 kmh 25.16 in852.0 mb 0.00 in0.0 mm 0.00 in0.0 mm 0.00 in0.0 mm
09:13 PM 85.6°F29.8°C -5537.2°C - 2.0 mph ENE3.2 kmh ENE 4.9 mph7.9 kmh 25.16 in852.0 mb 0.00 in0.0 mm 0.00 in0.0 mm 0.00 in0.0 mm
09:08 PM 86.4°F30.2°C -5537.2°C - 1.0 mph E1.6 kmh E 4.9 mph7.9 kmh 25.16 in852.0 mb 0.00 in0.0 mm 0.00 in0.0 mm 0.00 in0.0 mm
09:03 PM 87.1°F30.6°C -5537.2°C - 1.0 mph E1.6 kmh E 3.1 mph5.0 kmh 25.16 in852.0 mb 0.00 in0.0 mm 0.00 in0.0 mm 0.00 in0.0 mm
08:58 PM 87.6°F30.9°C -5537.2°C - Calm Calm 3.6 mph5.8 kmh 25.16 in852.0 mb 0.00 in0.0 mm 0.00 in0.0 mm 0.00 in0.0 mm
08:53 PM 88.0°F31.1°C -5537.2°C - Calm Calm -- 25.16 in852.0 mb 0.00 in0.0 mm 0.00 in0.0 mm 0.00 in0.0 mm
08:48 PM 88.9°F31.6°C -5537.2°C - 1.0 mph SE1.6 kmh SE 3.1 mph5.0 kmh 25.16 in852.0 mb 0.00 in0.0 mm 0.00 in0.0 mm 0.00 in0.0 mm
08:43 PM 89.6°F32.0°C -5537.2°C - 2.0 mph S3.2 kmh S 4.5 mph7.2 kmh 25.16 in852.0 mb 0.00 in0.0 mm 0.00 in0.0 mm 0.00 in0.0 mm
08:38 PM 91.2°F32.9°C -5537.2°C - 1.0 mph S1.6 kmh S 4.9 mph7.9 kmh 25.16 in852.0 mb 0.00 in0.0 mm 0.00 in0.0 mm 0.00 in0.0 mm
08:33 PM 92.3°F33.5°C -5537.2°C - Calm Calm 2.7 mph4.3 kmh 25.16 in852.0 mb 0.00 in0.0 mm 0.00 in0.0 mm 0.00 in0.0 mm
08:28 PM 93.6°F34.2°C -5537.2°C - Calm Calm -- 25.16 in852.0 mb 0.00 in0.0 mm 0.00 in0.0 mm 0.00 in0.0 mm
08:23 PM 94.3°F34.6°C -5537.2°C - Calm Calm 2.7 mph4.3 kmh 25.16 in852.0 mb 0.00 in0.0 mm 0.00 in0.0 mm 0.00 in0.0 mm
08:18 PM 95.0°F35.0°C -5537.2°C - 1.0 mph S1.6 kmh S 3.1 mph5.0 kmh 25.13 in851.0 mb 0.00 in0.0 mm 0.00 in0.0 mm 0.00 in0.0 mm
08:13 PM 95.4°F35.2°C -5537.2°C - 2.0 mph S3.2 kmh S 3.6 mph5.8 kmh 25.13 in851.0 mb 0.00 in0.0 mm 0.00 in0.0 mm 0.00 in0.0 mm
08:08 PM 95.9°F35.5°C -5537.2°C - 1.0 mph S1.6 kmh S 3.1 mph5.0 kmh 25.13 in851.0 mb 0.00 in0.0 mm 0.00 in0.0 mm 0.00 in0.0 mm
08:03 PM 96.1°F35.6°C -5537.2°C - 1.0 mph SE1.6 kmh SE 2.7 mph4.3 kmh 25.16 in852.0 mb 0.00 in0.0 mm 0.00 in0.0 mm 0.00 in0.0 mm
07:58 PM 96.1°F35.6°C -5537.2°C - 3.0 mph SE4.8 kmh SE 4.9 mph7.9 kmh 25.16 in852.0 mb 0.00 in0.0 mm 0.00 in0.0 mm 0.00 in0.0 mm
07:53 PM 96.3°F35.7°C -5537.2°C - 3.0 mph SE4.8 kmh SE 4.9 mph7.9 kmh 25.16 in852.0 mb 0.00 in0.0 mm 0.00 in0.0 mm 0.00 in0.0 mm
07:48 PM 96.3°F35.7°C -5537.2°C - 3.0 mph SE4.8 kmh SE 4.5 mph7.2 kmh 25.16 in852.0 mb 0.00 in0.0 mm 0.00 in0.0 mm 0.00 in0.0 mm
07:43 PM 96.1°F35.6°C -5537.2°C - 4.0 mph SE6.4 kmh SE 5.4 mph8.7 kmh 25.16 in852.0 mb 0.00 in0.0 mm 0.00 in0.0 mm 0.00 in0.0 mm
07:38 PM 96.3°F35.7°C -5537.2°C - 5.0 mph SSE8.0 kmh SSE 6.7 mph10.8 kmh 25.16 in852.0 mb 0.00 in0.0 mm 0.00 in0.0 mm 0.00 in0.0 mm
07:33 PM 96.4°F35.8°C -5537.2°C - 5.0 mph S8.0 kmh S 6.7 mph10.8 kmh 25.16 in852.0 mb 0.00 in0.0 mm 0.00 in0.0 mm 0.00 in0.0 mm
07:28 PM 96.6°F35.9°C -5537.2°C - 5.0 mph SSW8.0 kmh SSW 6.9 mph11.1 kmh 25.16 in852.0 mb 0.00 in0.0 mm 0.00 in0.0 mm 0.00 in0.0 mm
07:23 PM 96.4°F35.8°C -5537.2°C - 4.0 mph WSW6.4 kmh WSW 7.4 mph11.9 kmh 25.16 in852.0 mb 0.00 in0.0 mm 0.00 in0.0 mm 0.00 in0.0 mm
07:18 PM 96.3°F35.7°C -5537.2°C - 3.0 mph NW4.8 kmh NW 6.7 mph10.8 kmh 25.16 in852.0 mb 0.00 in0.0 mm 0.00 in0.0 mm 0.00 in0.0 mm
07:13 PM 96.6°F35.9°C -5537.2°C - 3.0 mph NW4.8 kmh NW 6.9 mph11.1 kmh 25.16 in852.0 mb 0.00 in0.0 mm 0.00 in0.0 mm 0.00 in0.0 mm
07:08 PM 96.4°F35.8°C -5537.2°C - 4.0 mph NW6.4 kmh NW 5.4 mph8.7 kmh 25.16 in852.0 mb 0.00 in0.0 mm 0.00 in0.0 mm 0.00 in0.0 mm
07:03 PM 96.6°F35.9°C -5537.2°C - 4.0 mph WNW6.4 kmh WNW 6.7 mph10.8 kmh 25.16 in852.0 mb 0.00 in0.0 mm 0.00 in0.0 mm 0.00 in0.0 mm
06:58 PM 97.0°F36.1°C -5537.2°C - 5.0 mph WSW8.0 kmh WSW 7.8 mph12.6 kmh 25.16 in852.0 mb 0.00 in0.0 mm 0.00 in0.0 mm 0.00 in0.0 mm
06:53 PM 97.0°F36.1°C -5537.2°C - 4.0 mph SW6.4 kmh SW 8.3 mph13.4 kmh 25.16 in852.0 mb 0.00 in0.0 mm 0.00 in0.0 mm 0.00 in0.0 mm
06:48 PM 97.5°F36.4°C -5537.2°C - 5.0 mph S8.0 kmh S 5.8 mph9.3 kmh 25.16 in852.0 mb 0.00 in0.0 mm 0.00 in0.0 mm 0.00 in0.0 mm
06:43 PM 97.7°F36.5°C -5537.2°C - 5.0 mph SE8.0 kmh SE 8.7 mph14.0 kmh 25.16 in852.0 mb 0.00 in0.0 mm 0.00 in0.0 mm 0.00 in0.0 mm
06:38 PM 98.4°F36.9°C -5537.2°C - 4.0 mph E6.4 kmh E 6.3 mph10.1 kmh 25.16 in852.0 mb 0.00 in0.0 mm 0.00 in0.0 mm 0.00 in0.0 mm
06:33 PM 97.9°F36.6°C -5537.2°C - 4.0 mph E6.4 kmh E 7.4 mph11.9 kmh 25.16 in852.0 mb 0.00 in0.0 mm 0.00 in0.0 mm 0.00 in0.0 mm
06:28 PM 97.9°F36.6°C -5537.2°C - 3.0 mph NE4.8 kmh NE 6.3 mph10.1 kmh 25.16 in852.0 mb 0.00 in0.0 mm 0.00 in0.0 mm 0.00 in0.0 mm
06:23 PM 97.5°F36.4°C -5537.2°C - 3.0 mph NNE4.8 kmh NNE 5.4 mph8.7 kmh 25.16 in852.0 mb 0.00 in0.0 mm 0.00 in0.0 mm 0.00 in0.0 mm
06:18 PM 97.5°F36.4°C -5537.2°C - 3.0 mph NNE4.8 kmh NNE 6.7 mph10.8 kmh 25.16 in852.0 mb 0.00 in0.0 mm 0.00 in0.0 mm 0.00 in0.0 mm
06:13 PM 97.9°F36.6°C -5537.2°C - 3.0 mph N4.8 kmh N 5.8 mph9.3 kmh 25.16 in852.0 mb 0.00 in0.0 mm 0.00 in0.0 mm 0.00 in0.0 mm
06:08 PM 97.9°F36.6°C -5537.2°C - 3.0 mph NE4.8 kmh NE 8.7 mph14.0 kmh 25.16 in852.0 mb 0.00 in0.0 mm 0.00 in0.0 mm 0.00 in0.0 mm
06:03 PM 98.1°F36.7°C -5537.2°C - 4.0 mph E6.4 kmh E 8.7 mph14.0 kmh 25.16 in852.0 mb 0.00 in0.0 mm 0.00 in0.0 mm 0.00 in0.0 mm
05:58 PM 97.9°F36.6°C -5537.2°C - 4.0 mph NE6.4 kmh NE 8.3 mph13.4 kmh 25.16 in852.0 mb 0.00 in0.0 mm 0.00 in0.0 mm 0.00 in0.0 mm
05:53 PM 97.7°F36.5°C -5537.2°C - 4.0 mph N6.4 kmh N 6.9 mph11.1 kmh 25.16 in852.0 mb 0.00 in0.0 mm 0.00 in0.0 mm 0.00 in0.0 mm
05:48 PM 97.0°F36.1°C -5537.2°C - 5.0 mph NNW8.0 kmh NNW 8.3 mph13.4 kmh 25.16 in852.0 mb 0.00 in0.0 mm 0.00 in0.0 mm 0.00 in0.0 mm
05:43 PM 96.8°F36.0°C -5537.2°C - 6.0 mph WNW9.7 kmh WNW 11.0 mph17.7 kmh 25.16 in852.0 mb 0.00 in0.0 mm 0.00 in0.0 mm 0.00 in0.0 mm
05:38 PM 97.3°F36.3°C -5537.2°C - 6.0 mph WSW9.7 kmh WSW 14.3 mph23.0 kmh 25.16 in852.0 mb 0.00 in0.0 mm 0.00 in0.0 mm 0.00 in0.0 mm
05:33 PM 97.3°F36.3°C -5537.2°C - 4.0 mph W6.4 kmh W 10.5 mph16.9 kmh 25.16 in852.0 mb 0.00 in0.0 mm 0.00 in0.0 mm 0.00 in0.0 mm
05:28 PM 97.9°F36.6°C -5537.2°C - 4.0 mph N6.4 kmh N 8.3 mph13.4 kmh 25.16 in852.0 mb 0.00 in0.0 mm 0.00 in0.0 mm 0.00 in0.0 mm
05:23 PM 97.5°F36.4°C -5537.2°C - 4.0 mph N6.4 kmh N 8.3 mph13.4 kmh 25.16 in852.0 mb 0.00 in0.0 mm 0.00 in0.0 mm 0.00 in0.0 mm
05:18 PM 97.7°F36.5°C -5537.2°C - 5.0 mph NNW8.0 kmh NNW 7.8 mph12.6 kmh 25.16 in852.0 mb 0.00 in0.0 mm 0.00 in0.0 mm 0.00 in0.0 mm
05:13 PM 97.9°F36.6°C -5537.2°C - 7.0 mph NW11.3 kmh NW 11.2 mph18.0 kmh 25.16 in852.0 mb 0.00 in0.0 mm 0.00 in0.0 mm 0.00 in0.0 mm
05:08 PM 97.7°F36.5°C -5537.2°C - 7.0 mph WNW11.3 kmh WNW 13.9 mph22.4 kmh 25.16 in852.0 mb 0.00 in0.0 mm 0.00 in0.0 mm 0.00 in0.0 mm
05:03 PM 98.6°F37.0°C -5537.2°C - 5.0 mph WNW8.0 kmh WNW 10.1 mph16.3 kmh 25.16 in852.0 mb 0.00 in0.0 mm 0.00 in0.0 mm 0.00 in0.0 mm
04:58 PM 97.5°F36.4°C -5537.2°C - 4.0 mph WSW6.4 kmh WSW 9.6 mph15.4 kmh 25.16 in852.0 mb 0.00 in0.0 mm 0.00 in0.0 mm 0.00 in0.0 mm
04:53 PM 97.9°F36.6°C -5537.2°C - 5.0 mph SW8.0 kmh SW 8.3 mph13.4 kmh 25.16 in852.0 mb 0.00 in0.0 mm 0.00 in0.0 mm 0.00 in0.0 mm
04:48 PM 96.8°F36.0°C -5537.2°C - 5.0 mph S8.0 kmh S 11.2 mph18.0 kmh 25.19 in853.0 mb 0.00 in0.0 mm 0.00 in0.0 mm 0.00 in0.0 mm
04:42 PM 98.4°F36.9°C -5537.2°C - 6.0 mph SSE9.7 kmh SSE 8.3 mph13.4 kmh 25.19 in853.0 mb 0.00 in0.0 mm 0.00 in0.0 mm 0.00 in0.0 mm
04:37 PM 98.2°F36.8°C -5537.2°C - 7.0 mph S11.3 kmh S 11.0 mph17.7 kmh 25.19 in853.0 mb 0.00 in0.0 mm 0.00 in0.0 mm 0.00 in0.0 mm
04:32 PM 97.2°F36.2°C -5537.2°C - 7.0 mph SSW11.3 kmh SSW 11.2 mph18.0 kmh 25.19 in853.0 mb 0.00 in0.0 mm 0.00 in0.0 mm 0.00 in0.0 mm
04:27 PM 97.0°F36.1°C -5537.2°C - 7.0 mph NW11.3 kmh NW 16.3 mph26.2 kmh 25.19 in853.0 mb 0.00 in0.0 mm 0.00 in0.0 mm 0.00 in0.0 mm
04:22 PM 95.7°F35.4°C -5537.2°C - 7.0 mph W11.3 kmh W 12.5 mph20.1 kmh 25.19 in853.0 mb 0.00 in0.0 mm 0.00 in0.0 mm 0.00 in0.0 mm
04:17 PM 97.3°F36.3°C -5537.2°C - 6.0 mph SW9.7 kmh SW 11.2 mph18.0 kmh 25.19 in853.0 mb 0.00 in0.0 mm 0.00 in0.0 mm 0.00 in0.0 mm
04:12 PM 97.2°F36.2°C -5537.2°C - 6.0 mph SW9.7 kmh SW 10.1 mph16.3 kmh 25.19 in853.0 mb 0.00 in0.0 mm 0.00 in0.0 mm 0.00 in0.0 mm
04:07 PM 97.2°F36.2°C -5537.2°C - 6.0 mph WSW9.7 kmh WSW 11.6 mph18.7 kmh 25.19 in853.0 mb 0.00 in0.0 mm 0.00 in0.0 mm 0.00 in0.0 mm
04:02 PM 97.0°F36.1°C -5537.2°C - 5.0 mph WSW8.0 kmh WSW 9.6 mph15.4 kmh 25.19 in853.0 mb 0.00 in0.0 mm 0.00 in0.0 mm 0.00 in0.0 mm
03:57 PM 97.0°F36.1°C -5537.2°C - 6.0 mph WSW9.7 kmh WSW 9.2 mph14.8 kmh 25.19 in853.0 mb 0.00 in0.0 mm 0.00 in0.0 mm 0.00 in0.0 mm
03:52 PM 96.3°F35.7°C -5537.2°C - 7.0 mph WSW11.3 kmh WSW 12.1 mph19.5 kmh 25.19 in853.0 mb 0.00 in0.0 mm 0.00 in0.0 mm 0.00 in0.0 mm
03:47 PM 96.1°F35.6°C -5537.2°C - 6.0 mph W9.7 kmh W 11.2 mph18.0 kmh 25.19 in853.0 mb 0.00 in0.0 mm 0.00 in0.0 mm 0.00 in0.0 mm
03:42 PM 96.8°F36.0°C -5537.2°C - 6.0 mph WSW9.7 kmh WSW 12.1 mph19.5 kmh 25.19 in853.0 mb 0.00 in0.0 mm 0.00 in0.0 mm 0.00 in0.0 mm
03:37 PM 97.5°F36.4°C -5537.2°C - 6.0 mph W9.7 kmh W 12.5 mph20.1 kmh 25.19 in853.0 mb 0.00 in0.0 mm 0.00 in0.0 mm 0.00 in0.0 mm
03:32 PM 96.6°F35.9°C -5537.2°C - 7.0 mph WNW11.3 kmh WNW 10.1 mph16.3 kmh 25.19 in853.0 mb 0.00 in0.0 mm 0.00 in0.0 mm 0.00 in0.0 mm
03:27 PM 97.5°F36.4°C -5537.2°C - 7.0 mph WSW11.3 kmh WSW 13.0 mph20.9 kmh 25.19 in853.0 mb 0.00 in0.0 mm 0.00 in0.0 mm 0.00 in0.0 mm
03:22 PM 97.3°F36.3°C -5537.2°C - 6.0 mph SW9.7 kmh SW 11.2 mph18.0 kmh 25.19 in853.0 mb 0.00 in0.0 mm 0.00 in0.0 mm 0.00 in0.0 mm
03:17 PM 96.8°F36.0°C -5537.2°C - 7.0 mph SW11.3 kmh SW 10.1 mph16.3 kmh 25.22 in854.0 mb 0.00 in0.0 mm 0.00 in0.0 mm 0.00 in0.0 mm
03:12 PM 96.4°F35.8°C -5537.2°C - 7.0 mph SW11.3 kmh SW 11.2 mph18.0 kmh 25.22 in854.0 mb 0.00 in0.0 mm 0.00 in0.0 mm 0.00 in0.0 mm
03:07 PM 96.4°F35.8°C -5537.2°C - 7.0 mph SW11.3 kmh SW 11.2 mph18.0 kmh 25.22 in854.0 mb 0.00 in0.0 mm 0.00 in0.0 mm 0.00 in0.0 mm
03:02 PM 97.0°F36.1°C -5537.2°C - 6.0 mph WSW9.7 kmh WSW 11.2 mph18.0 kmh 25.22 in854.0 mb 0.00 in0.0 mm 0.00 in0.0 mm 0.00 in0.0 mm
02:57 PM 97.0°F36.1°C -5537.2°C - 4.0 mph NE6.4 kmh NE 10.5 mph16.9 kmh 25.22 in854.0 mb 0.00 in0.0 mm 0.00 in0.0 mm 0.00 in0.0 mm
02:52 PM 96.1°F35.6°C -5537.2°C - 4.0 mph E6.4 kmh E 4.5 mph7.2 kmh 25.22 in854.0 mb 0.00 in0.0 mm 0.00 in0.0 mm 0.00 in0.0 mm
02:47 PM 97.2°F36.2°C -5537.2°C - 4.0 mph SE6.4 kmh SE 9.2 mph14.8 kmh 25.22 in854.0 mb 0.00 in0.0 mm 0.00 in0.0 mm 0.00 in0.0 mm
02:42 PM 96.4°F35.8°C -5537.2°C - 4.0 mph SE6.4 kmh SE 9.2 mph14.8 kmh 25.22 in854.0 mb 0.00 in0.0 mm 0.00 in0.0 mm 0.00 in0.0 mm
02:37 PM 95.5°F35.3°C -5537.2°C - 4.0 mph SSE6.4 kmh SSE 8.3 mph13.4 kmh 25.22 in854.0 mb 0.00 in0.0 mm 0.00 in0.0 mm 0.00 in0.0 mm
02:32 PM 95.5°F35.3°C -5537.2°C - 4.0 mph S6.4 kmh S 7.4 mph11.9 kmh 25.22 in854.0 mb 0.00 in0.0 mm 0.00 in0.0 mm 0.00 in0.0 mm
02:27 PM 95.4°F35.2°C -5537.2°C - 4.0 mph S6.4 kmh S 6.7 mph10.8 kmh 25.22 in854.0 mb 0.00 in0.0 mm 0.00 in0.0 mm 0.00 in0.0 mm
02:22 PM 95.0°F35.0°C -5537.2°C - 5.0 mph S8.0 kmh S 7.4 mph11.9 kmh 25.22 in854.0 mb 0.00 in0.0 mm 0.00 in0.0 mm 0.00 in0.0 mm
02:17 PM 95.2°F35.1°C -5537.2°C - 6.0 mph SE9.7 kmh SE 10.1 mph16.3 kmh 25.22 in854.0 mb 0.00 in0.0 mm 0.00 in0.0 mm 0.00 in0.0 mm
02:12 PM 95.4°F35.2°C -5537.2°C - 6.0 mph SE9.7 kmh SE 9.6 mph15.4 kmh 25.22 in854.0 mb 0.00 in0.0 mm 0.00 in0.0 mm 0.00 in0.0 mm
02:07 PM 94.8°F34.9°C -5537.2°C - 6.0 mph SE9.7 kmh SE 9.2 mph14.8 kmh 25.22 in854.0 mb 0.00 in0.0 mm 0.00 in0.0 mm 0.00 in0.0 mm
02:02 PM 95.4°F35.2°C -5537.2°C - 5.0 mph SSE8.0 kmh SSE 8.3 mph13.4 kmh 25.25 in855.1 mb 0.00 in0.0 mm 0.00 in0.0 mm 0.00 in0.0 mm
01:57 PM 95.2°F35.1°C -5537.2°C - 4.0 mph SSE6.4 kmh SSE 6.9 mph11.1 kmh 25.25 in855.1 mb 0.00 in0.0 mm 0.00 in0.0 mm 0.00 in0.0 mm
01:52 PM 94.6°F34.8°C -5537.2°C - 4.0 mph S6.4 kmh S 9.2 mph14.8 kmh 25.25 in855.1 mb 0.00 in0.0 mm 0.00 in0.0 mm 0.00 in0.0 mm
01:47 PM 93.9°F34.4°C -5537.2°C - 4.0 mph SSW6.4 kmh SSW 7.4 mph11.9 kmh 25.25 in855.1 mb 0.00 in0.0 mm 0.00 in0.0 mm 0.00 in0.0 mm
01:42 PM 93.4°F34.1°C -5537.2°C - 6.0 mph SW9.7 kmh SW 10.1 mph16.3 kmh 25.25 in855.1 mb 0.00 in0.0 mm 0.00 in0.0 mm 0.00 in0.0 mm
01:37 PM 94.1°F34.5°C -5537.2°C - 6.0 mph S9.7 kmh S 10.1 mph16.3 kmh 25.25 in855.1 mb 0.00 in0.0 mm 0.00 in0.0 mm 0.00 in0.0 mm
01:32 PM 93.7°F34.3°C -5537.2°C - 6.0 mph SSW9.7 kmh SSW 11.0 mph17.7 kmh 25.25 in855.1 mb 0.00 in0.0 mm 0.00 in0.0 mm 0.00 in0.0 mm
01:27 PM 94.5°F34.7°C -5537.2°C - 3.0 mph W4.8 kmh W 9.6 mph15.4 kmh 25.25 in855.1 mb 0.00 in0.0 mm 0.00 in0.0 mm 0.00 in0.0 mm
01:22 PM 93.0°F33.9°C -5537.2°C - 4.0 mph NW6.4 kmh NW 6.3 mph10.1 kmh 25.25 in855.1 mb 0.00 in0.0 mm 0.00 in0.0 mm 0.00 in0.0 mm
01:17 PM 92.5°F33.6°C -5537.2°C - 5.0 mph W8.0 kmh W 8.3 mph13.4 kmh 25.25 in855.1 mb 0.00 in0.0 mm 0.00 in0.0 mm 0.00 in0.0 mm
01:12 PM 92.5°F33.6°C -5537.2°C - 4.0 mph NW6.4 kmh NW 10.1 mph16.3 kmh 25.25 in855.1 mb 0.00 in0.0 mm 0.00 in0.0 mm 0.00 in0.0 mm
01:07 PM 91.0°F32.8°C -5537.2°C - 3.0 mph N4.8 kmh N 6.7 mph10.8 kmh 25.25 in855.1 mb 0.00 in0.0 mm 0.00 in0.0 mm 0.00 in0.0 mm
01:02 PM 91.0°F32.8°C -5537.2°C - 4.0 mph NNW6.4 kmh NNW 8.3 mph13.4 kmh 25.25 in855.1 mb 0.00 in0.0 mm 0.00 in0.0 mm 0.00 in0.0 mm
12:57 PM 91.2°F32.9°C -5537.2°C - 4.0 mph NNW6.4 kmh NNW 8.7 mph14.0 kmh 25.25 in855.1 mb 0.00 in0.0 mm 0.00 in0.0 mm 0.00 in0.0 mm
12:52 PM 90.7°F32.6°C -5537.2°C - 4.0 mph NW6.4 kmh NW 6.3 mph10.1 kmh 25.25 in855.1 mb 0.00 in0.0 mm 0.00 in0.0 mm 0.00 in0.0 mm
12:47 PM 90.9°F32.7°C -5537.2°C - 5.0 mph NW8.0 kmh NW 7.4 mph11.9 kmh 25.25 in855.1 mb 0.00 in0.0 mm 0.00 in0.0 mm 0.00 in0.0 mm
12:42 PM 90.7°F32.6°C -5537.2°C - 5.0 mph NW8.0 kmh NW 10.1 mph16.3 kmh 25.25 in855.1 mb 0.00 in0.0 mm 0.00 in0.0 mm 0.00 in0.0 mm
12:37 PM 89.4°F31.9°C -5537.2°C - 5.0 mph NW8.0 kmh NW 7.8 mph12.6 kmh 25.25 in855.1 mb 0.00 in0.0 mm 0.00 in0.0 mm 0.00 in0.0 mm
12:32 PM 89.4°F31.9°C -5537.2°C - 6.0 mph W9.7 kmh W 9.6 mph15.4 kmh 25.25 in855.1 mb 0.00 in0.0 mm 0.00 in0.0 mm 0.00 in0.0 mm
12:27 PM 89.8°F32.1°C -5537.2°C - 5.0 mph WNW8.0 kmh WNW 8.7 mph14.0 kmh 25.25 in855.1 mb 0.00 in0.0 mm 0.00 in0.0 mm 0.00 in0.0 mm
12:22 PM 89.8°F32.1°C -5537.2°C - 4.0 mph NW6.4 kmh NW 8.7 mph14.0 kmh 25.25 in855.1 mb 0.00 in0.0 mm 0.00 in0.0 mm 0.00 in0.0 mm
12:17 PM 90.0°F32.2°C -5537.2°C - 5.0 mph NW8.0 kmh NW 11.0 mph17.7 kmh 25.25 in855.1 mb 0.00 in0.0 mm 0.00 in0.0 mm 0.00 in0.0 mm
12:12 PM 88.9°F31.6°C -5537.2°C - 6.0 mph NNW9.7 kmh NNW 9.2 mph14.8 kmh 25.25 in855.1 mb 0.00 in0.0 mm 0.00 in0.0 mm 0.00 in0.0 mm
12:07 PM 88.5°F31.4°C -5537.2°C - 5.0 mph NNW8.0 kmh NNW 11.0 mph17.7 kmh 25.25 in855.1 mb 0.00 in0.0 mm 0.00 in0.0 mm 0.00 in0.0 mm
12:02 PM 88.3°F31.3°C -5537.2°C - 5.0 mph N8.0 kmh N 10.1 mph16.3 kmh 25.28 in856.1 mb 0.00 in0.0 mm 0.00 in0.0 mm 0.00 in0.0 mm
11:57 AM 87.8°F31.0°C -5537.2°C - 6.0 mph NNW9.7 kmh NNW 8.7 mph14.0 kmh 25.28 in856.1 mb 0.00 in0.0 mm 0.00 in0.0 mm 0.00 in0.0 mm
11:52 AM 88.0°F31.1°C -5537.2°C - 5.0 mph NW8.0 kmh NW 10.1 mph16.3 kmh 25.28 in856.1 mb 0.00 in0.0 mm 0.00 in0.0 mm 0.00 in0.0 mm
11:47 AM 88.3°F31.3°C -5537.2°C - 5.0 mph NW8.0 kmh NW 9.6 mph15.4 kmh 25.28 in856.1 mb 0.00 in0.0 mm 0.00 in0.0 mm 0.00 in0.0 mm
11:42 AM 87.1°F30.6°C -5537.2°C - 5.0 mph NNW8.0 kmh NNW 9.6 mph15.4 kmh 25.28 in856.1 mb 0.00 in0.0 mm 0.00 in0.0 mm 0.00 in0.0 mm
11:37 AM 87.6°F30.9°C -5537.2°C - 5.0 mph N8.0 kmh N 9.2 mph14.8 kmh 25.28 in856.1 mb 0.00 in0.0 mm 0.00 in0.0 mm 0.00 in0.0 mm
11:32 AM 86.4°F30.2°C -5537.2°C - 6.0 mph N9.7 kmh N 10.5 mph16.9 kmh 25.28 in856.1 mb 0.00 in0.0 mm 0.00 in0.0 mm 0.00 in0.0 mm
11:27 AM 86.0°F30.0°C -5537.2°C - 6.0 mph NNW9.7 kmh NNW 9.6 mph15.4 kmh 25.28 in856.1 mb 0.00 in0.0 mm 0.00 in0.0 mm 0.00 in0.0 mm
11:22 AM 85.5°F29.7°C -5537.2°C - 6.0 mph NW9.7 kmh NW 11.0 mph17.7 kmh 25.28 in856.1 mb 0.00 in0.0 mm 0.00 in0.0 mm 0.00 in0.0 mm
11:17 AM 84.9°F29.4°C -5537.2°C - 6.0 mph NNW9.7 kmh NNW 8.7 mph14.0 kmh 25.28 in856.1 mb 0.00 in0.0 mm 0.00 in0.0 mm 0.00 in0.0 mm
11:12 AM 85.3°F29.6°C -5537.2°C - 6.0 mph N9.7 kmh N 12.1 mph19.5 kmh 25.28 in856.1 mb 0.00 in0.0 mm 0.00 in0.0 mm 0.00 in0.0 mm
11:07 AM 84.7°F29.3°C -5537.2°C - 6.0 mph NNW9.7 kmh NNW 10.5 mph16.9 kmh 25.28 in856.1 mb 0.00 in0.0 mm 0.00 in0.0 mm 0.00 in0.0 mm
11:02 AM 82.9°F28.3°C -5537.2°C - 7.0 mph NW11.3 kmh NW 11.0 mph17.7 kmh 25.28 in856.1 mb 0.00 in0.0 mm 0.00 in0.0 mm 0.00 in0.0 mm
10:57 AM 82.4°F28.0°C -5537.2°C - 7.0 mph NNW11.3 kmh NNW 10.5 mph16.9 kmh 25.28 in856.1 mb 0.00 in0.0 mm 0.00 in0.0 mm 0.00 in0.0 mm
10:52 AM 82.2°F27.9°C -5537.2°C - 6.0 mph NW9.7 kmh NW 12.1 mph19.5 kmh 25.28 in856.1 mb 0.00 in0.0 mm 0.00 in0.0 mm 0.00 in0.0 mm
10:47 AM 82.4°F28.0°C -5537.2°C - 6.0 mph NW9.7 kmh NW 9.2 mph14.8 kmh 25.28 in856.1 mb 0.00 in0.0 mm 0.00 in0.0 mm 0.00 in0.0 mm
10:42 AM 82.6°F28.1°C -5537.2°C - 6.0 mph NNW9.7 kmh NNW 10.5 mph16.9 kmh 25.28 in856.1 mb 0.00 in0.0 mm 0.00 in0.0 mm 0.00 in0.0 mm
10:37 AM 81.5°F27.5°C -5537.2°C - 6.0 mph NNW9.7 kmh NNW 9.2 mph14.8 kmh 25.28 in856.1 mb 0.00 in0.0 mm 0.00 in0.0 mm 0.00 in0.0 mm
10:32 AM 81.0°F27.2°C -5537.2°C - 6.0 mph NW9.7 kmh NW 9.2 mph14.8 kmh 25.28 in856.1 mb 0.00 in0.0 mm 0.00 in0.0 mm 0.00 in0.0 mm
10:27 AM 81.3°F27.4°C -5537.2°C - 6.0 mph NW9.7 kmh NW 10.5 mph16.9 kmh 25.28 in856.1 mb 0.00 in0.0 mm 0.00 in0.0 mm 0.00 in0.0 mm
10:22 AM 80.8°F27.1°C -5537.2°C - 5.0 mph WNW8.0 kmh WNW 9.6 mph15.4 kmh 25.28 in856.1 mb 0.00 in0.0 mm 0.00 in0.0 mm 0.00 in0.0 mm
10:17 AM 80.4°F26.9°C -5537.2°C - 6.0 mph NW9.7 kmh NW 9.2 mph14.8 kmh 25.28 in856.1 mb 0.00 in0.0 mm 0.00 in0.0 mm 0.00 in0.0 mm
10:12 AM 79.7°F26.5°C -5537.2°C - 6.0 mph NW9.7 kmh NW 10.1 mph16.3 kmh 25.28 in856.1 mb 0.00 in0.0 mm 0.00 in0.0 mm 0.00 in0.0 mm
10:07 AM 79.0°F26.1°C -5537.2°C - 6.0 mph NW9.7 kmh NW 8.7 mph14.0 kmh 25.28 in856.1 mb 0.00 in0.0 mm 0.00 in0.0 mm 0.00 in0.0 mm
10:02 AM 78.4°F25.8°C -5537.2°C - 7.0 mph NW11.3 kmh NW 10.5 mph16.9 kmh 25.28 in856.1 mb 0.00 in0.0 mm 0.00 in0.0 mm 0.00 in0.0 mm
09:57 AM 78.8°F26.0°C -5537.2°C - 6.0 mph NW9.7 kmh NW 11.2 mph18.0 kmh 25.28 in856.1 mb 0.00 in0.0 mm 0.00 in0.0 mm 0.00 in0.0 mm
09:52 AM 78.8°F26.0°C -5537.2°C - 4.0 mph N6.4 kmh N 8.3 mph13.4 kmh 25.28 in856.1 mb 0.00 in0.0 mm 0.00 in0.0 mm 0.00 in0.0 mm
09:47 AM 79.0°F26.1°C -5537.2°C - 4.0 mph N6.4 kmh N 7.4 mph11.9 kmh 25.28 in856.1 mb 0.00 in0.0 mm 0.00 in0.0 mm 0.00 in0.0 mm
09:42 AM 78.3°F25.7°C -5537.2°C - 5.0 mph N8.0 kmh N 8.3 mph13.4 kmh 25.28 in856.1 mb 0.00 in0.0 mm 0.00 in0.0 mm 0.00 in0.0 mm
09:37 AM 77.9°F25.5°C -5537.2°C - 5.0 mph N8.0 kmh N 8.7 mph14.0 kmh 25.28 in856.1 mb 0.00 in0.0 mm 0.00 in0.0 mm 0.00 in0.0 mm
09:32 AM 77.0°F25.0°C -5537.2°C - 6.0 mph N9.7 kmh N 11.0 mph17.7 kmh 25.28 in856.1 mb 0.00 in0.0 mm 0.00 in0.0 mm 0.00 in0.0 mm
09:27 AM 76.8°F24.9°C -5537.2°C - 6.0 mph NNW9.7 kmh NNW 12.1 mph19.5 kmh 25.28 in856.1 mb 0.00 in0.0 mm 0.00 in0.0 mm 0.00 in0.0 mm
09:22 AM 77.4°F25.2°C -5537.2°C - 6.0 mph NNW9.7 kmh NNW 9.2 mph14.8 kmh 25.28 in856.1 mb 0.00 in0.0 mm 0.00 in0.0 mm 0.00 in0.0 mm
09:17 AM 76.3°F24.6°C -5537.2°C - 7.0 mph NNW11.3 kmh NNW 9.6 mph15.4 kmh 25.28 in856.1 mb 0.00 in0.0 mm 0.00 in0.0 mm 0.00 in0.0 mm
09:12 AM 76.3°F24.6°C -5537.2°C - 7.0 mph NNW11.3 kmh NNW 11.6 mph18.7 kmh 25.28 in856.1 mb 0.00 in0.0 mm 0.00 in0.0 mm 0.00 in0.0 mm
09:07 AM 75.7°F24.3°C -5537.2°C - 6.0 mph N9.7 kmh N 12.5 mph20.1 kmh 25.28 in856.1 mb 0.00 in0.0 mm 0.00 in0.0 mm 0.00 in0.0 mm
09:02 AM 76.8°F24.9°C -5537.2°C - 7.0 mph N11.3 kmh N 10.1 mph16.3 kmh 25.28 in856.1 mb 0.00 in0.0 mm 0.00 in0.0 mm 0.00 in0.0 mm
08:57 AM 76.1°F24.5°C -5537.2°C - 8.0 mph NNE12.9 kmh NNE 12.5 mph20.1 kmh 25.28 in856.1 mb 0.00 in0.0 mm 0.00 in0.0 mm 0.00 in0.0 mm
08:52 AM 75.0°F23.9°C -5537.2°C - 8.0 mph NNE12.9 kmh NNE 13.4 mph21.6 kmh 25.28 in856.1 mb 0.00 in0.0 mm 0.00 in0.0 mm 0.00 in0.0 mm
08:47 AM 74.5°F23.6°C -5537.2°C - 8.0 mph NNE12.9 kmh NNE 14.8 mph23.8 kmh 25.28 in856.1 mb 0.00 in0.0 mm 0.00 in0.0 mm 0.00 in0.0 mm
08:42 AM 73.8°F23.2°C -5537.2°C - 9.0 mph N14.5 kmh N 13.4 mph21.6 kmh 25.28 in856.1 mb 0.00 in0.0 mm 0.00 in0.0 mm 0.00 in0.0 mm
08:37 AM 73.2°F22.9°C -5537.2°C - 8.0 mph N12.9 kmh N 13.0 mph20.9 kmh 25.28 in856.1 mb 0.00 in0.0 mm 0.00 in0.0 mm 0.00 in0.0 mm
08:32 AM 72.3°F22.4°C -5537.2°C - 8.0 mph N12.9 kmh N 12.5 mph20.1 kmh 25.28 in856.1 mb 0.00 in0.0 mm 0.00 in0.0 mm 0.00 in0.0 mm
08:27 AM 71.6°F22.0°C -5537.2°C - 7.0 mph N11.3 kmh N 11.0 mph17.7 kmh 25.28 in856.1 mb 0.00 in0.0 mm 0.00 in0.0 mm 0.00 in0.0 mm
08:22 AM 71.4°F21.9°C -5537.2°C - 7.0 mph N11.3 kmh N 10.1 mph16.3 kmh 25.28 in856.1 mb 0.00 in0.0 mm 0.00 in0.0 mm 0.00 in0.0 mm
08:17 AM 71.4°F21.9°C -5537.2°C - 6.0 mph N9.7 kmh N 11.0 mph17.7 kmh 25.28 in856.1 mb 0.00 in0.0 mm 0.00 in0.0 mm 0.00 in0.0 mm
08:12 AM 71.6°F22.0°C -5537.2°C - 6.0 mph N9.7 kmh N 9.6 mph15.4 kmh 25.28 in856.1 mb 0.00 in0.0 mm 0.00 in0.0 mm 0.00 in0.0 mm
08:07 AM 70.9°F21.6°C -5537.2°C - 6.0 mph N9.7 kmh N 10.1 mph16.3 kmh 25.28 in856.1 mb 0.00 in0.0 mm 0.00 in0.0 mm 0.00 in0.0 mm
08:02 AM 71.1°F21.7°C -5537.2°C - 6.0 mph N9.7 kmh N 10.5 mph16.9 kmh 25.28 in856.1 mb 0.00 in0.0 mm 0.00 in0.0 mm 0.00 in0.0 mm
07:57 AM 70.3°F21.3°C -5537.2°C - 6.0 mph N9.7 kmh N 10.5 mph16.9 kmh 25.28 in856.1 mb 0.00 in0.0 mm 0.00 in0.0 mm 0.00 in0.0 mm
07:52 AM 70.7°F21.5°C -5537.2°C - 4.0 mph NNE6.4 kmh NNE 8.7 mph14.0 kmh 25.28 in856.1 mb 0.00 in0.0 mm 0.00 in0.0 mm 0.00 in0.0 mm
07:46 AM 70.3°F21.3°C -5537.2°C - 3.0 mph NE4.8 kmh NE 8.3 mph13.4 kmh 25.28 in856.1 mb 0.00 in0.0 mm 0.00 in0.0 mm 0.00 in0.0 mm
07:41 AM 69.6°F20.9°C -5537.2°C - 2.0 mph NE3.2 kmh NE 6.9 mph11.1 kmh 25.28 in856.1 mb 0.00 in0.0 mm 0.00 in0.0 mm 0.00 in0.0 mm
07:36 AM 69.1°F20.6°C -5537.2°C - 3.0 mph NE4.8 kmh NE 4.9 mph7.9 kmh 25.28 in856.1 mb 0.00 in0.0 mm 0.00 in0.0 mm 0.00 in0.0 mm
07:31 AM 68.2°F20.1°C -5537.2°C - 4.0 mph NE6.4 kmh NE 6.9 mph11.1 kmh 25.28 in856.1 mb 0.00 in0.0 mm 0.00 in0.0 mm 0.00 in0.0 mm
07:26 AM 67.3°F19.6°C -5537.2°C - 5.0 mph NNE8.0 kmh NNE 7.8 mph12.6 kmh 25.28 in856.1 mb 0.00 in0.0 mm 0.00 in0.0 mm 0.00 in0.0 mm
07:21 AM 66.4°F19.1°C -5537.2°C - 6.0 mph N9.7 kmh N 11.6 mph18.7 kmh 25.28 in856.1 mb 0.00 in0.0 mm 0.00 in0.0 mm 0.00 in0.0 mm
07:16 AM 65.8°F18.8°C -5537.2°C - 5.0 mph N8.0 kmh N 10.5 mph16.9 kmh 25.25 in855.1 mb 0.00 in0.0 mm 0.00 in0.0 mm 0.00 in0.0 mm
07:11 AM 64.6°F18.1°C -5537.2°C - 4.0 mph NNE6.4 kmh NNE 7.8 mph12.6 kmh 25.25 in855.1 mb 0.00 in0.0 mm 0.00 in0.0 mm 0.00 in0.0 mm
07:06 AM 64.4°F18.0°C -5537.2°C - 4.0 mph N6.4 kmh N 8.7 mph14.0 kmh 25.25 in855.1 mb 0.00 in0.0 mm 0.00 in0.0 mm 0.00 in0.0 mm
07:01 AM 64.6°F18.1°C -5537.2°C - 5.0 mph NW8.0 kmh NW 7.8 mph12.6 kmh 25.25 in855.1 mb 0.00 in0.0 mm 0.00 in0.0 mm 0.00 in0.0 mm
06:56 AM 65.5°F18.6°C -5537.2°C - 6.0 mph NW9.7 kmh NW 7.8 mph12.6 kmh 25.25 in855.1 mb 0.00 in0.0 mm 0.00 in0.0 mm 0.00 in0.0 mm
06:51 AM 65.8°F18.8°C -5537.2°C - 6.0 mph NW9.7 kmh NW 7.4 mph11.9 kmh 25.25 in855.1 mb 0.00 in0.0 mm 0.00 in0.0 mm 0.00 in0.0 mm
06:46 AM 65.7°F18.7°C -5537.2°C - 6.0 mph NW9.7 kmh NW 8.7 mph14.0 kmh 25.25 in855.1 mb 0.00 in0.0 mm 0.00 in0.0 mm 0.00 in0.0 mm
06:41 AM 66.4°F19.1°C -5537.2°C - 6.0 mph NW9.7 kmh NW 8.3 mph13.4 kmh 25.25 in855.1 mb 0.00 in0.0 mm 0.00 in0.0 mm 0.00 in0.0 mm
06:36 AM 65.1°F18.4°C -5537.2°C - 5.0 mph N8.0 kmh N 6.9 mph11.1 kmh 25.25 in855.1 mb 0.00 in0.0 mm 0.00 in0.0 mm 0.00 in0.0 mm
06:31 AM 63.1°F17.3°C -5537.2°C - 4.0 mph N6.4 kmh N 6.7 mph10.8 kmh 25.25 in855.1 mb 0.00 in0.0 mm 0.00 in0.0 mm 0.00 in0.0 mm
06:26 AM 64.4°F18.0°C -5537.2°C - 5.0 mph NNW8.0 kmh NNW 5.8 mph9.3 kmh 25.25 in855.1 mb 0.00 in0.0 mm 0.00 in0.0 mm 0.00 in0.0 mm
06:21 AM 65.1°F18.4°C -5537.2°C - 7.0 mph NW11.3 kmh NW 9.6 mph15.4 kmh 25.25 in855.1 mb 0.00 in0.0 mm 0.00 in0.0 mm 0.00 in0.0 mm
06:16 AM 64.8°F18.2°C -5537.2°C - 7.0 mph NW11.3 kmh NW 9.2 mph14.8 kmh 25.25 in855.1 mb 0.00 in0.0 mm 0.00 in0.0 mm 0.00 in0.0 mm
06:11 AM 65.3°F18.5°C -5537.2°C - 7.0 mph NW11.3 kmh NW 9.6 mph15.4 kmh 25.25 in855.1 mb 0.00 in0.0 mm 0.00 in0.0 mm 0.00 in0.0 mm
06:06 AM 66.7°F19.3°C -5537.2°C - 6.0 mph NNW9.7 kmh NNW 11.0 mph17.7 kmh 25.25 in855.1 mb 0.00 in0.0 mm 0.00 in0.0 mm 0.00 in0.0 mm
06:01 AM 68.5°F20.3°C -5537.2°C - 4.0 mph N6.4 kmh N 7.4 mph11.9 kmh 25.22 in854.0 mb 0.00 in0.0 mm 0.00 in0.0 mm 0.00 in0.0 mm
05:56 AM 68.4°F20.2°C -5537.2°C - 4.0 mph N6.4 kmh N 6.3 mph10.1 kmh 25.22 in854.0 mb 0.00 in0.0 mm 0.00 in0.0 mm 0.00 in0.0 mm
05:51 AM 67.5°F19.7°C -5537.2°C - 4.0 mph N6.4 kmh N 4.9 mph7.9 kmh 25.22 in854.0 mb 0.00 in0.0 mm 0.00 in0.0 mm 0.00 in0.0 mm
05:46 AM 67.3°F19.6°C -5537.2°C - 4.0 mph N6.4 kmh N 5.8 mph9.3 kmh 25.22 in854.0 mb 0.00 in0.0 mm 0.00 in0.0 mm 0.00 in0.0 mm
05:41 AM 67.5°F19.7°C -5537.2°C - 5.0 mph N8.0 kmh N 6.7 mph10.8 kmh 25.22 in854.0 mb 0.00 in0.0 mm 0.00 in0.0 mm 0.00 in0.0 mm
05:36 AM 68.5°F20.3°C -5537.2°C - 5.0 mph N8.0 kmh N 7.4 mph11.9 kmh 25.22 in854.0 mb 0.00 in0.0 mm 0.00 in0.0 mm 0.00 in0.0 mm
05:31 AM 69.3°F20.7°C -5537.2°C - 6.0 mph N9.7 kmh N 9.2 mph14.8 kmh 25.22 in854.0 mb 0.00 in0.0 mm 0.00 in0.0 mm 0.00 in0.0 mm
05:26 AM 68.5°F20.3°C -5537.2°C - 5.0 mph N8.0 kmh N 9.6 mph15.4 kmh 25.22 in854.0 mb 0.00 in0.0 mm 0.00 in0.0 mm 0.00 in0.0 mm
05:21 AM 68.7°F20.4°C -5537.2°C - 4.0 mph NNE6.4 kmh NNE 6.7 mph10.8 kmh 25.22 in854.0 mb 0.00 in0.0 mm 0.00 in0.0 mm 0.00 in0.0 mm
05:16 AM 69.1°F20.6°C -5537.2°C - 4.0 mph NNE6.4 kmh NNE 5.8 mph9.3 kmh 25.25 in855.1 mb 0.00 in0.0 mm 0.00 in0.0 mm 0.00 in0.0 mm
05:11 AM 70.0°F21.1°C -5537.2°C - 4.0 mph NNE6.4 kmh NNE 5.8 mph9.3 kmh 25.25 in855.1 mb 0.00 in0.0 mm 0.00 in0.0 mm 0.00 in0.0 mm
05:06 AM 70.5°F21.4°C -5537.2°C - 5.0 mph NNE8.0 kmh NNE 7.4 mph11.9 kmh 25.25 in855.1 mb 0.00 in0.0 mm 0.00 in0.0 mm 0.00 in0.0 mm
05:01 AM 70.5°F21.4°C -5537.2°C - 6.0 mph NNE9.7 kmh NNE 8.3 mph13.4 kmh 25.22 in854.0 mb 0.00 in0.0 mm 0.00 in0.0 mm 0.00 in0.0 mm
04:56 AM 71.4°F21.9°C -5537.2°C - 6.0 mph NE9.7 kmh NE 10.5 mph16.9 kmh 25.22 in854.0 mb 0.00 in0.0 mm 0.00 in0.0 mm 0.00 in0.0 mm
04:51 AM 71.4°F21.9°C -5537.2°C - 6.0 mph NNE9.7 kmh NNE 9.6 mph15.4 kmh 25.22 in854.0 mb 0.00 in0.0 mm 0.00 in0.0 mm 0.00 in0.0 mm
04:46 AM 71.2°F21.8°C -5537.2°C - 5.0 mph NNE8.0 kmh NNE 13.0 mph20.9 kmh 25.22 in854.0 mb 0.00 in0.0 mm 0.00 in0.0 mm 0.00 in0.0 mm
04:41 AM 70.3°F21.3°C -5537.2°C - 4.0 mph NNE6.4 kmh NNE 6.9 mph11.1 kmh 25.22 in854.0 mb 0.00 in0.0 mm 0.00 in0.0 mm 0.00 in0.0 mm
04:36 AM 69.6°F20.9°C -5537.2°C - 4.0 mph NNE6.4 kmh NNE 8.3 mph13.4 kmh 25.22 in854.0 mb 0.00 in0.0 mm 0.00 in0.0 mm 0.00 in0.0 mm
04:31 AM 69.3°F20.7°C -5537.2°C - 5.0 mph NNE8.0 kmh NNE 6.9 mph11.1 kmh 25.22 in854.0 mb 0.00 in0.0 mm 0.00 in0.0 mm 0.00 in0.0 mm
04:26 AM 68.4°F20.2°C -5537.2°C - 4.0 mph NNE6.4 kmh NNE 6.7 mph10.8 kmh 25.22 in854.0 mb 0.00 in0.0 mm 0.00 in0.0 mm 0.00 in0.0 mm
04:21 AM 68.7°F20.4°C -5537.2°C - 3.0 mph NNE4.8 kmh NNE 5.4 mph8.7 kmh 25.22 in854.0 mb 0.00 in0.0 mm 0.00 in0.0 mm 0.00 in0.0 mm
04:16 AM 68.5°F20.3°C -5537.2°C - 4.0 mph NNE6.4 kmh NNE 4.9 mph7.9 kmh 25.22 in854.0 mb 0.00 in0.0 mm 0.00 in0.0 mm 0.00 in0.0 mm
04:11 AM 68.7°F20.4°C -5537.2°C - 4.0 mph N6.4 kmh N 6.7 mph10.8 kmh 25.22 in854.0 mb 0.00 in0.0 mm 0.00 in0.0 mm 0.00 in0.0 mm
04:06 AM 68.9°F20.5°C -5537.2°C - 4.0 mph N6.4 kmh N 6.7 mph10.8 kmh 25.22 in854.0 mb 0.00 in0.0 mm 0.00 in0.0 mm 0.00 in0.0 mm
04:01 AM 69.1°F20.6°C -5537.2°C - 4.0 mph N6.4 kmh N 7.8 mph12.6 kmh 25.22 in854.0 mb 0.00 in0.0 mm 0.00 in0.0 mm 0.00 in0.0 mm
03:56 AM 70.0°F21.1°C -5537.2°C - 4.0 mph N6.4 kmh N 6.7 mph10.8 kmh 25.22 in854.0 mb 0.00 in0.0 mm 0.00 in0.0 mm 0.00 in0.0 mm
03:51 AM 70.0°F21.1°C -5537.2°C - 4.0 mph NNE6.4 kmh NNE 5.8 mph9.3 kmh 25.22 in854.0 mb 0.00 in0.0 mm 0.00 in0.0 mm 0.00 in0.0 mm
03:46 AM 69.8°F21.0°C -5537.2°C - 4.0 mph NE6.4 kmh NE 6.3 mph10.1 kmh 25.22 in854.0 mb 0.00 in0.0 mm 0.00 in0.0 mm 0.00 in0.0 mm
03:41 AM 68.5°F20.3°C -5537.2°C - 3.0 mph NE4.8 kmh NE 5.4 mph8.7 kmh 25.22 in854.0 mb 0.00 in0.0 mm 0.00 in0.0 mm 0.00 in0.0 mm
03:36 AM 68.7°F20.4°C -5537.2°C - 3.0 mph NE4.8 kmh NE 4.5 mph7.2 kmh 25.22 in854.0 mb 0.00 in0.0 mm 0.00 in0.0 mm 0.00 in0.0 mm
03:31 AM 69.3°F20.7°C -5537.2°C - 4.0 mph NE6.4 kmh NE 5.4 mph8.7 kmh 25.22 in854.0 mb 0.00 in0.0 mm 0.00 in0.0 mm 0.00 in0.0 mm
03:26 AM 68.5°F20.3°C -5537.2°C - 3.0 mph NE4.8 kmh NE 4.9 mph7.9 kmh 25.22 in854.0 mb 0.00 in0.0 mm 0.00 in0.0 mm 0.00 in0.0 mm
03:21 AM 68.7°F20.4°C -5537.2°C - 3.0 mph NE4.8 kmh NE 4.5 mph7.2 kmh 25.22 in854.0 mb 0.00 in0.0 mm 0.00 in0.0 mm 0.00 in0.0 mm
03:16 AM 69.3°F20.7°C -5537.2°C - 4.0 mph NE6.4 kmh NE 4.9 mph7.9 kmh 25.22 in854.0 mb 0.00 in0.0 mm 0.00 in0.0 mm 0.00 in0.0 mm
03:11 AM 69.1°F20.6°C -5537.2°C - 3.0 mph NE4.8 kmh NE 4.9 mph7.9 kmh 25.22 in854.0 mb 0.00 in0.0 mm 0.00 in0.0 mm 0.00 in0.0 mm
03:06 AM 69.6°F20.9°C -5537.2°C - 3.0 mph NE4.8 kmh NE 5.4 mph8.7 kmh 25.22 in854.0 mb 0.00 in0.0 mm 0.00 in0.0 mm 0.00 in0.0 mm
03:01 AM 70.2°F21.2°C -5537.2°C - 3.0 mph NE4.8 kmh NE 4.9 mph7.9 kmh 25.22 in854.0 mb 0.00 in0.0 mm 0.00 in0.0 mm 0.00 in0.0 mm
02:56 AM 70.3°F21.3°C -5537.2°C - 1.0 mph NE1.6 kmh NE 4.9 mph7.9 kmh 25.22 in854.0 mb 0.00 in0.0 mm 0.00 in0.0 mm 0.00 in0.0 mm
02:51 AM 71.1°F21.7°C -5537.2°C - Calm Calm 2.7 mph4.3 kmh 25.22 in854.0 mb 0.00 in0.0 mm 0.00 in0.0 mm 0.00 in0.0 mm
02:46 AM 70.3°F21.3°C -5537.2°C - Calm Calm 3.6 mph5.8 kmh 25.22 in854.0 mb 0.00 in0.0 mm 0.00 in0.0 mm 0.00 in0.0 mm
02:41 AM 70.2°F21.2°C -5537.2°C - Calm Calm -- 25.22 in854.0 mb 0.00 in0.0 mm 0.00 in0.0 mm 0.00 in0.0 mm
02:36 AM 70.2°F21.2°C -5537.2°C - Calm Calm -- 25.22 in854.0 mb 0.00 in0.0 mm 0.00 in0.0 mm 0.00 in0.0 mm
02:31 AM 70.9°F21.6°C -5537.2°C - 1.0 mph NE1.6 kmh NE 3.1 mph5.0 kmh 25.22 in854.0 mb 0.00 in0.0 mm 0.00 in0.0 mm 0.00 in0.0 mm
02:26 AM 70.9°F21.6°C -5537.2°C - Calm Calm 3.1 mph5.0 kmh 25.22 in854.0 mb 0.00 in0.0 mm 0.00 in0.0 mm 0.00 in0.0 mm
02:21 AM 71.6°F22.0°C -5537.2°C - 1.0 mph NE1.6 kmh NE 4.0 mph6.4 kmh 25.22 in854.0 mb 0.00 in0.0 mm 0.00 in0.0 mm 0.00 in0.0 mm
02:16 AM 71.8°F22.1°C -5537.2°C - 1.0 mph NE1.6 kmh NE 4.9 mph7.9 kmh 25.22 in854.0 mb 0.00 in0.0 mm 0.00 in0.0 mm 0.00 in0.0 mm
02:11 AM 71.8°F22.1°C -5537.2°C - Calm Calm 4.9 mph7.9 kmh 25.22 in854.0 mb 0.00 in0.0 mm 0.00 in0.0 mm 0.00 in0.0 mm
02:06 AM 71.6°F22.0°C -5537.2°C - 1.0 mph N1.6 kmh N 2.7 mph4.3 kmh 25.22 in854.0 mb 0.00 in0.0 mm 0.00 in0.0 mm 0.00 in0.0 mm
02:01 AM 71.6°F22.0°C -5537.2°C - 1.0 mph N1.6 kmh N 4.9 mph7.9 kmh 25.22 in854.0 mb 0.00 in0.0 mm 0.00 in0.0 mm 0.00 in0.0 mm
01:56 AM 71.6°F22.0°C -5537.2°C - 2.0 mph N3.2 kmh N 3.6 mph5.8 kmh 25.22 in854.0 mb 0.00 in0.0 mm 0.00 in0.0 mm 0.00 in0.0 mm
01:51 AM 72.7°F22.6°C -5537.2°C - 3.0 mph N4.8 kmh N 4.5 mph7.2 kmh 25.22 in854.0 mb 0.00 in0.0 mm 0.00 in0.0 mm 0.00 in0.0 mm
01:46 AM 73.8°F23.2°C -5537.2°C - 4.0 mph N6.4 kmh N 4.5 mph7.2 kmh 25.22 in854.0 mb 0.00 in0.0 mm 0.00 in0.0 mm 0.00 in0.0 mm
01:41 AM 74.7°F23.7°C -5537.2°C - 4.0 mph N6.4 kmh N 6.7 mph10.8 kmh 25.22 in854.0 mb 0.00 in0.0 mm 0.00 in0.0 mm 0.00 in0.0 mm
01:36 AM 74.5°F23.6°C -5537.2°C - 4.0 mph 6.4 kmh 5.8 mph9.3 kmh 25.22 in854.0 mb 0.00 in0.0 mm 0.00 in0.0 mm 0.00 in0.0 mm
01:31 AM 74.1°F23.4°C -5537.2°C - 4.0 mph NNE6.4 kmh NNE 7.4 mph11.9 kmh 25.19 in853.0 mb 0.00 in0.0 mm 0.00 in0.0 mm 0.00 in0.0 mm
01:26 AM 74.7°F23.7°C -5537.2°C - 2.0 mph E3.2 kmh E 6.9 mph11.1 kmh 25.19 in853.0 mb 0.00 in0.0 mm 0.00 in0.0 mm 0.00 in0.0 mm
01:21 AM 75.7°F24.3°C -5537.2°C - 1.0 mph ESE1.6 kmh ESE 3.6 mph5.8 kmh 25.19 in853.0 mb 0.00 in0.0 mm 0.00 in0.0 mm 0.00 in0.0 mm
01:16 AM 75.6°F24.2°C -5537.2°C - 1.0 mph ESE1.6 kmh ESE 4.5 mph7.2 kmh 25.19 in853.0 mb 0.00 in0.0 mm 0.00 in0.0 mm 0.00 in0.0 mm
01:11 AM 75.0°F23.9°C -5537.2°C - 1.0 mph ESE1.6 kmh ESE 4.0 mph6.4 kmh 25.19 in853.0 mb 0.00 in0.0 mm 0.00 in0.0 mm 0.00 in0.0 mm
01:06 AM 75.2°F24.0°C -5537.2°C - 2.0 mph E3.2 kmh E 4.5 mph7.2 kmh 25.19 in853.0 mb 0.00 in0.0 mm 0.00 in0.0 mm 0.00 in0.0 mm
01:01 AM 75.6°F24.2°C -5537.2°C - 2.0 mph E3.2 kmh E 4.9 mph7.9 kmh 25.19 in853.0 mb 0.00 in0.0 mm 0.00 in0.0 mm 0.00 in0.0 mm
12:56 AM 76.3°F24.6°C -5537.2°C - 1.0 mph E1.6 kmh E 4.5 mph7.2 kmh 25.19 in853.0 mb 0.00 in0.0 mm 0.00 in0.0 mm 0.00 in0.0 mm
12:51 AM 76.6°F24.8°C -5537.2°C - 1.0 mph E1.6 kmh E 4.0 mph6.4 kmh 25.19 in853.0 mb 0.00 in0.0 mm 0.00 in0.0 mm 0.00 in0.0 mm
12:46 AM 76.6°F24.8°C -5537.2°C - 1.0 mph E1.6 kmh E 4.0 mph6.4 kmh 25.19 in853.0 mb 0.00 in0.0 mm 0.00 in0.0 mm 0.00 in0.0 mm
12:41 AM 77.2°F25.1°C -5537.2°C - 3.0 mph ESE4.8 kmh ESE 4.5 mph7.2 kmh 25.19 in853.0 mb 0.00 in0.0 mm 0.00 in0.0 mm 0.00 in0.0 mm
12:36 AM 77.7°F25.4°C -5537.2°C - 3.0 mph ESE4.8 kmh ESE 6.9 mph11.1 kmh 25.19 in853.0 mb 0.00 in0.0 mm 0.00 in0.0 mm 0.00 in0.0 mm
12:31 AM 77.2°F25.1°C -5537.2°C - Calm Calm 4.9 mph7.9 kmh 25.19 in853.0 mb 0.00 in0.0 mm 0.00 in0.0 mm 0.00 in0.0 mm
12:26 AM 76.8°F24.9°C -5537.2°C - 1.0 mph ESE1.6 kmh ESE 2.7 mph4.3 kmh 25.19 in853.0 mb 0.00 in0.0 mm 0.00 in0.0 mm 0.00 in0.0 mm
12:21 AM 77.0°F25.0°C -5537.2°C - 3.0 mph E4.8 kmh E 6.3 mph10.1 kmh 25.19 in853.0 mb 0.00 in0.0 mm 0.00 in0.0 mm 0.00 in0.0 mm
12:16 AM 76.8°F24.9°C -5537.2°C - 2.0 mph E3.2 kmh E 4.5 mph7.2 kmh 25.19 in853.0 mb 0.00 in0.0 mm 0.00 in0.0 mm 0.00 in0.0 mm
12:11 AM 77.5°F25.3°C -5537.2°C - 1.0 mph E1.6 kmh E 4.0 mph6.4 kmh 25.19 in853.0 mb 0.00 in0.0 mm 0.00 in0.0 mm 0.00 in0.0 mm
12:06 AM 77.0°F25.0°C -5537.2°C - 2.0 mph E3.2 kmh E 3.6 mph5.8 kmh 25.19 in853.0 mb 0.00 in0.0 mm 0.00 in0.0 mm 0.00 in0.0 mm
12:01 AM 77.7°F25.4°C -5537.2°C - 2.0 mph E3.2 kmh E 4.9 mph7.9 kmh 25.19 in853.0 mb 0.00 in0.0 mm 0.00 in0.0 mm 0.00 in0.0 mm